createdAt,value
2019-03-21T00:00:41.697Z,12.07
2019-03-21T00:03:11.470Z,11.67
2019-03-21T00:05:41.246Z,12.87
2019-03-21T00:08:12.052Z,11.93
2019-03-21T00:11:23.942Z,11.37
2019-03-21T00:13:55.017Z,12.73
2019-03-21T00:16:24.590Z,10.50
2019-03-21T00:18:54.421Z,11.97
2019-03-21T00:21:24.181Z,12.93
2019-03-21T00:23:53.826Z,11.80
2019-03-21T00:26:24.230Z,11.87
2019-03-21T00:28:54.038Z,14.83
2019-03-21T00:31:23.647Z,12.47
2019-03-21T00:33:53.572Z,13.47
2019-03-21T00:36:23.226Z,11.70
2019-03-21T00:38:52.802Z,11.50
2019-03-21T00:41:22.403Z,12.37
2019-03-21T00:43:52.176Z,12.20
2019-03-21T00:46:21.798Z,11.30
2019-03-21T00:48:51.601Z,12.53
2019-03-21T00:51:21.374Z,11.87
2019-03-21T00:53:51.136Z,12.10
2019-03-21T00:56:20.759Z,11.37
2019-03-21T00:58:50.358Z,11.27
2019-03-21T01:01:20.019Z,12.10
2019-03-21T01:03:49.767Z,12.43
2019-03-21T01:06:19.594Z,11.40
2019-03-21T01:08:49.340Z,11.97
2019-03-21T01:11:18.974Z,11.70
2019-03-21T01:13:49.036Z,12.30
2019-03-21T01:16:18.671Z,11.10
2019-03-21T01:18:48.472Z,12.53
2019-03-21T01:21:18.315Z,10.80
2019-03-21T01:23:47.906Z,12.53
2019-03-21T01:26:17.696Z,10.13
2019-03-21T01:28:47.505Z,11.57
2019-03-21T01:31:17.268Z,11.70
2019-03-21T01:33:46.831Z,11.40
2019-03-21T01:36:16.545Z,10.97
2019-03-21T01:38:46.118Z,9.60
2019-03-21T01:41:15.939Z,10.57
2019-03-21T01:43:45.747Z,11.13
2019-03-21T01:46:15.766Z,10.37
2019-03-21T01:48:45.622Z,10.77
2019-03-21T01:51:15.400Z,10.70
2019-03-21T01:53:45.132Z,10.70
2019-03-21T01:56:14.694Z,10.43
2019-03-21T01:58:44.456Z,10.93
2019-03-21T02:01:14.059Z,11.53
2019-03-21T02:03:43.867Z,10.90
2019-03-21T02:06:13.670Z,10.70
2019-03-21T02:08:43.341Z,11.63
2019-03-21T02:11:12.897Z,9.87
2019-03-21T02:13:42.811Z,11.57
2019-03-21T02:16:12.369Z,10.83
2019-03-21T02:18:42.129Z,9.93
2019-03-21T02:21:11.819Z,10.60
2019-03-21T02:23:41.630Z,11.00
2019-03-21T02:26:11.188Z,10.97
2019-03-21T02:28:40.935Z,10.60
2019-03-21T02:31:10.525Z,10.77
2019-03-21T02:33:41.438Z,9.50
2019-03-21T02:36:11.033Z,11.20
2019-03-21T02:38:40.752Z,10.43
2019-03-21T02:41:10.925Z,11.40
2019-03-21T02:43:41.183Z,10.17
2019-03-21T02:46:10.754Z,10.67
2019-03-21T02:48:40.499Z,10.97
2019-03-21T02:51:10.317Z,11.50
2019-03-21T02:53:40.166Z,11.47
2019-03-21T02:56:11.530Z,11.60
2019-03-21T02:58:41.880Z,11.60
2019-03-21T03:01:11.661Z,10.73
2019-03-21T03:03:41.270Z,11.53
2019-03-21T03:06:10.954Z,10.47
2019-03-21T03:08:40.530Z,11.73
2019-03-21T03:11:10.969Z,10.67
2019-03-21T03:13:41.525Z,10.70
2019-03-21T03:16:11.115Z,10.63
2019-03-21T03:18:40.743Z,10.90
2019-03-21T03:21:10.524Z,10.30
2019-03-21T03:23:40.327Z,10.33
2019-03-21T03:26:10.545Z,9.97
2019-03-21T03:28:40.736Z,10.77
2019-03-21T03:31:10.332Z,9.40
2019-03-21T03:33:40.173Z,9.93
2019-03-21T03:36:10.312Z,11.20
2019-03-21T03:38:40.125Z,10.50
2019-03-21T03:41:10.373Z,9.97
2019-03-21T03:43:40.118Z,10.87
2019-03-21T03:46:09.745Z,9.80
2019-03-21T03:48:39.513Z,10.70
2019-03-21T03:51:09.105Z,10.87
2019-03-21T03:53:42.277Z,10.10
2019-03-21T03:56:10.566Z,10.47
2019-03-21T03:58:41.706Z,10.20
2019-03-21T04:01:11.486Z,11.10
2019-03-21T04:03:41.120Z,11.50
2019-03-21T04:06:10.794Z,10.87
2019-03-21T04:08:40.632Z,10.97
2019-03-21T04:11:10.660Z,11.00
2019-03-21T04:13:40.374Z,10.60
2019-03-21T04:16:10.191Z,10.73
2019-03-21T04:18:39.929Z,10.27
2019-03-21T04:21:09.511Z,9.47
2019-03-21T04:23:39.251Z,9.27
2019-03-21T04:26:12.713Z,10.20
2019-03-21T04:28:43.087Z,9.80
2019-03-21T04:31:12.890Z,11.27
2019-03-21T04:33:43.304Z,10.57
2019-03-21T04:36:13.188Z,9.63
2019-03-21T04:38:42.972Z,9.50
2019-03-21T04:41:12.913Z,9.77
2019-03-21T04:43:42.551Z,10.43
2019-03-21T04:46:12.175Z,11.63
2019-03-21T04:48:41.775Z,10.30
2019-03-21T04:51:11.341Z,10.50
2019-03-21T04:53:40.982Z,11.10
2019-03-21T04:56:11.130Z,9.77
2019-03-21T04:58:40.965Z,9.33
2019-03-21T05:01:10.753Z,9.13
2019-03-21T05:03:40.325Z,10.30
2019-03-21T05:06:10.596Z,9.83
2019-03-21T05:08:40.810Z,10.20
2019-03-21T05:11:10.673Z,10.80
2019-03-21T05:13:40.356Z,8.90
2019-03-21T05:16:14.733Z,10.37
2019-03-21T05:18:43.024Z,11.57
2019-03-21T05:21:13.932Z,11.47
2019-03-21T05:23:43.569Z,10.27
2019-03-21T05:26:14.259Z,10.27
2019-03-21T05:28:43.865Z,11.00
2019-03-21T05:31:17.098Z,11.40
2019-03-21T05:33:47.080Z,11.73
2019-03-21T05:36:16.920Z,11.47
2019-03-21T05:38:46.753Z,10.70
2019-03-21T05:41:16.489Z,12.93
2019-03-21T05:43:49.737Z,12.77
2019-03-21T05:46:26.649Z,11.20
2019-03-21T05:48:51.130Z,11.63
2019-03-21T05:51:20.967Z,11.67
2019-03-21T05:53:51.834Z,11.33
2019-03-21T05:56:21.662Z,11.60
2019-03-21T05:58:51.276Z,12.53
2019-03-21T06:01:21.068Z,12.50
2019-03-21T06:03:51.442Z,10.50
2019-03-21T06:06:35.081Z,12.23
2019-03-21T06:09:06.122Z,13.00
2019-03-21T06:11:35.726Z,12.03
2019-03-21T06:14:06.528Z,12.20
2019-03-21T06:16:37.802Z,10.30
2019-03-21T06:19:34.628Z,11.33
2019-03-21T06:22:28.833Z,11.50
2019-03-21T06:25:25.764Z,12.30
2019-03-21T06:27:55.398Z,12.23
2019-03-21T06:30:25.222Z,11.23
2019-03-21T06:32:55.022Z,13.57
2019-03-21T06:35:24.861Z,11.07
2019-03-21T06:37:55.635Z,10.67
2019-03-21T06:40:25.488Z,11.00
2019-03-21T06:42:55.278Z,11.80
2019-03-21T06:45:25.045Z,10.03
2019-03-21T06:47:54.648Z,9.90
2019-03-21T06:50:24.469Z,10.37
2019-03-21T06:52:54.104Z,10.60
2019-03-21T06:55:23.971Z,9.73
2019-03-21T06:57:53.618Z,10.80
2019-03-21T07:00:25.017Z,10.20
2019-03-21T07:02:54.842Z,12.27
2019-03-21T07:05:26.692Z,11.23
2019-03-21T07:07:55.983Z,11.97
2019-03-21T07:10:26.343Z,11.90
2019-03-21T07:12:56.319Z,13.87
2019-03-21T07:15:25.875Z,14.43
2019-03-21T07:17:55.887Z,15.40
2019-03-21T07:20:25.743Z,14.50
2019-03-21T07:22:55.828Z,13.17
2019-03-21T07:25:25.700Z,11.93
2019-03-21T07:27:55.435Z,11.13
2019-03-21T07:30:25.032Z,11.40
2019-03-21T07:32:54.877Z,11.13
2019-03-21T07:35:24.491Z,10.77
2019-03-21T07:37:54.578Z,9.60
2019-03-21T07:40:24.241Z,10.73
2019-03-21T07:42:53.853Z,9.33
2019-03-21T07:45:23.830Z,9.73
2019-03-21T07:47:54.051Z,10.60
2019-03-21T07:50:23.809Z,8.20
2019-03-21T07:52:53.620Z,10.17
2019-03-21T07:55:23.198Z,9.47
2019-03-21T07:57:52.949Z,9.90
2019-03-21T08:00:22.566Z,9.30
2019-03-21T08:02:52.573Z,9.73
2019-03-21T08:05:22.386Z,9.07
2019-03-21T08:07:52.026Z,10.43
2019-03-21T08:10:21.822Z,9.50
2019-03-21T08:12:51.597Z,8.50
2019-03-21T08:15:21.411Z,8.70
2019-03-21T08:17:51.052Z,8.67
2019-03-21T08:20:20.844Z,10.60
2019-03-21T08:22:51.786Z,9.60
2019-03-21T08:25:21.629Z,9.43
2019-03-21T08:27:52.305Z,9.30
2019-03-21T08:30:35.682Z,8.30
2019-03-21T08:33:05.635Z,8.67
2019-03-21T08:35:35.927Z,8.17
2019-03-21T08:38:06.147Z,8.10
2019-03-21T08:40:35.871Z,9.07
2019-03-21T08:43:05.665Z,9.13
2019-03-21T08:45:35.472Z,12.00
2019-03-21T08:48:05.025Z,9.63
2019-03-21T08:50:34.850Z,9.17
2019-03-21T08:53:04.403Z,9.97
2019-03-21T08:55:34.242Z,9.07
2019-03-21T08:58:03.861Z,8.67
2019-03-21T09:00:34.641Z,9.87
2019-03-21T09:03:04.266Z,9.20
2019-03-21T09:05:33.913Z,8.27
2019-03-21T09:08:04.109Z,9.10
2019-03-21T09:10:34.652Z,10.27
2019-03-21T09:13:04.835Z,8.40
2019-03-21T09:15:34.868Z,9.00
2019-03-21T09:18:04.568Z,9.27
2019-03-21T09:20:34.468Z,9.00
2019-03-21T09:23:04.441Z,8.83
2019-03-21T09:25:34.414Z,8.70
2019-03-21T09:28:04.454Z,9.43
2019-03-21T09:30:34.412Z,9.70
2019-03-21T09:33:04.263Z,8.40
2019-03-21T09:35:34.289Z,8.20
2019-03-21T09:38:04.223Z,8.67
2019-03-21T09:40:33.829Z,7.40
2019-03-21T09:43:03.902Z,8.07
2019-03-21T09:45:33.847Z,7.33
2019-03-21T09:48:03.568Z,7.07
2019-03-21T09:50:33.249Z,7.17
2019-03-21T09:53:03.308Z,6.77
2019-03-21T09:55:33.074Z,7.07
2019-03-21T09:58:03.606Z,6.80
2019-03-21T10:00:34.999Z,6.30
2019-03-21T10:03:04.943Z,6.47
2019-03-21T10:05:34.762Z,6.33
2019-03-21T10:08:04.448Z,6.37
2019-03-21T10:10:34.499Z,6.33
2019-03-21T10:13:04.859Z,6.17
2019-03-21T10:15:35.027Z,6.50
2019-03-21T10:18:04.918Z,5.43
2019-03-21T10:20:34.543Z,5.60
2019-03-21T10:23:04.193Z,5.67
2019-03-21T10:25:34.040Z,5.20
2019-03-21T10:28:05.128Z,6.17
2019-03-21T10:30:39.840Z,6.20
2019-03-21T10:33:11.178Z,4.50
2019-03-21T10:35:41.104Z,4.60
2019-03-21T10:38:10.822Z,5.37
2019-03-21T10:40:40.745Z,4.17
2019-03-21T10:43:10.800Z,4.53
2019-03-21T10:45:40.901Z,4.90
2019-03-21T10:48:10.556Z,5.13
2019-03-21T10:50:41.342Z,4.40
2019-03-21T10:53:11.723Z,4.27
2019-03-21T10:55:41.330Z,4.40
2019-03-21T10:58:11.403Z,4.53
2019-03-21T11:00:41.079Z,4.00
2019-03-21T11:03:10.729Z,4.30
2019-03-21T11:05:41.559Z,4.60
2019-03-21T11:08:11.188Z,4.20
2019-03-21T11:10:41.120Z,4.50
2019-03-21T11:13:11.032Z,4.77
2019-03-21T11:15:40.678Z,4.40
2019-03-21T11:18:10.470Z,4.77
2019-03-21T11:20:41.307Z,5.20
2019-03-21T11:23:11.510Z,4.40
2019-03-21T11:25:41.369Z,5.40
2019-03-21T11:28:11.753Z,5.03
2019-03-21T11:30:42.995Z,4.57
2019-03-21T11:33:13.009Z,5.70
2019-03-21T11:35:42.852Z,4.50
2019-03-21T11:38:13.054Z,5.50
2019-03-21T11:40:43.187Z,6.30
2019-03-21T11:43:14.783Z,5.27
2019-03-21T11:45:44.658Z,5.10
2019-03-21T11:48:14.870Z,5.53
2019-03-21T11:50:44.977Z,6.00
2019-03-21T11:53:14.808Z,5.83
2019-03-21T11:55:44.491Z,6.20
2019-03-21T11:58:14.686Z,6.20
2019-03-21T12:00:45.337Z,6.17
2019-03-21T12:03:15.403Z,6.33
2019-03-21T12:05:45.239Z,6.07
2019-03-21T12:08:15.024Z,6.27
2019-03-21T12:10:44.685Z,6.27
2019-03-21T12:13:14.873Z,5.80
2019-03-21T12:15:44.877Z,7.13
2019-03-21T12:18:14.839Z,7.20
2019-03-21T12:20:44.639Z,6.00
2019-03-21T12:23:14.324Z,6.60
2019-03-21T12:25:44.156Z,6.83
2019-03-21T12:28:13.798Z,5.97
2019-03-21T12:30:44.858Z,6.90
2019-03-21T12:33:14.598Z,5.93
2019-03-21T12:35:44.789Z,7.17
2019-03-21T12:38:14.866Z,5.43
2019-03-21T12:40:44.648Z,5.93
2019-03-21T12:43:14.416Z,6.53
2019-03-21T12:45:44.609Z,6.20
2019-03-21T12:48:14.256Z,6.57
2019-03-21T12:50:44.031Z,5.57
2019-03-21T12:53:13.650Z,6.37
2019-03-21T12:55:43.292Z,5.60
2019-03-21T12:58:14.030Z,5.50
2019-03-21T13:00:44.886Z,6.33
2019-03-21T13:03:14.512Z,5.00
2019-03-21T13:05:44.348Z,5.40
2019-03-21T13:08:14.060Z,5.00
2019-03-21T13:10:44.081Z,5.60
2019-03-21T13:13:14.032Z,6.20
2019-03-21T13:15:43.821Z,5.40
2019-03-21T13:18:13.460Z,5.63
2019-03-21T13:20:43.381Z,6.57
2019-03-21T13:23:13.120Z,6.47
2019-03-21T13:25:42.891Z,5.90
2019-03-21T13:28:12.540Z,6.00
2019-03-21T13:30:42.413Z,6.10
2019-03-21T13:33:12.085Z,6.10
2019-03-21T13:35:41.991Z,6.70
2019-03-21T13:38:12.616Z,6.93
2019-03-21T13:40:42.318Z,6.27
2019-03-21T13:43:12.326Z,6.53
2019-03-21T13:45:42.092Z,7.80
2019-03-21T13:48:12.035Z,6.27
2019-03-21T13:50:42.606Z,5.90
2019-03-21T13:53:18.756Z,6.40
2019-03-21T13:55:43.944Z,5.97
2019-03-21T13:58:13.776Z,5.63
2019-03-21T14:00:45.200Z,6.37
2019-03-21T14:03:24.576Z,6.90
2019-03-21T14:05:46.492Z,7.43
2019-03-21T14:08:19.222Z,6.90
2019-03-21T14:10:48.902Z,6.10
2019-03-21T14:13:18.659Z,6.43
2019-03-21T14:15:48.351Z,6.20
2019-03-21T14:18:20.209Z,6.10
2019-03-21T14:20:50.100Z,6.00
2019-03-21T14:23:20.152Z,5.67
2019-03-21T14:25:52.095Z,5.90
2019-03-21T14:28:21.934Z,5.60
2019-03-21T14:30:51.778Z,6.07
2019-03-21T14:33:21.621Z,5.90
2019-03-21T14:35:53.449Z,5.53
2019-03-21T14:38:26.070Z,6.00
2019-03-21T14:40:55.429Z,4.57
2019-03-21T14:43:25.331Z,5.00
2019-03-21T14:45:55.085Z,5.37
2019-03-21T14:48:24.693Z,5.10
2019-03-21T14:50:55.622Z,5.80
2019-03-21T14:53:29.074Z,5.40
2019-03-21T14:55:58.395Z,5.00
2019-03-21T14:58:29.814Z,5.40
2019-03-21T15:00:59.560Z,5.13
2019-03-21T15:03:29.375Z,5.70
2019-03-21T15:06:00.505Z,5.07
2019-03-21T15:08:30.297Z,5.20
2019-03-21T15:11:00.271Z,5.70
2019-03-21T15:13:30.049Z,4.40
2019-03-21T15:16:00.164Z,5.50
2019-03-21T15:18:31.305Z,4.90
2019-03-21T15:21:01.270Z,5.43
2019-03-21T15:23:40.193Z,5.50
2019-03-21T15:26:02.343Z,5.47
2019-03-21T15:28:34.325Z,5.80
2019-03-21T15:31:05.383Z,5.20
2019-03-21T15:33:36.565Z,5.90
2019-03-21T15:36:07.078Z,5.97
2019-03-21T15:38:36.984Z,6.17
2019-03-21T15:41:07.270Z,6.00
2019-03-21T15:43:36.935Z,5.20
2019-03-21T15:46:06.796Z,5.70
2019-03-21T15:48:36.687Z,6.70
2019-03-21T15:51:06.314Z,5.10
2019-03-21T15:53:36.104Z,5.63
2019-03-21T15:56:06.302Z,5.43
2019-03-21T15:58:36.391Z,5.77
2019-03-21T16:01:06.935Z,5.60
2019-03-21T16:03:36.578Z,5.60
2019-03-21T16:06:06.552Z,5.20
2019-03-21T16:08:37.033Z,5.70
2019-03-21T16:11:06.834Z,6.10
2019-03-21T16:13:36.664Z,4.83
2019-03-21T16:16:06.291Z,5.90
2019-03-21T16:18:36.066Z,5.77
2019-03-21T16:21:06.317Z,5.27
2019-03-21T16:23:36.176Z,5.50
2019-03-21T16:26:06.299Z,5.67
2019-03-21T16:28:35.963Z,5.73
2019-03-21T16:31:06.059Z,6.47
2019-03-21T16:33:35.873Z,5.87
2019-03-21T16:36:05.648Z,6.00
2019-03-21T16:38:35.382Z,5.70
2019-03-21T16:41:05.117Z,6.10
2019-03-21T16:43:34.734Z,5.60
2019-03-21T16:46:04.642Z,6.20
2019-03-21T16:48:34.542Z,5.90
2019-03-21T16:51:04.679Z,6.03
2019-03-21T16:53:34.388Z,5.83
2019-03-21T16:56:04.221Z,5.87
2019-03-21T16:58:34.023Z,5.97
2019-03-21T17:01:03.786Z,5.80
2019-03-21T17:03:33.382Z,6.10
2019-03-21T17:06:03.509Z,6.50
2019-03-21T17:08:33.327Z,5.83
2019-03-21T17:11:02.974Z,6.33
2019-03-21T17:13:32.992Z,5.43
2019-03-21T17:16:05.522Z,6.22
2019-03-21T17:18:34.192Z,6.30
2019-03-21T17:21:04.226Z,6.17
2019-03-21T17:23:34.517Z,5.63
2019-03-21T17:26:04.536Z,6.10
2019-03-21T17:28:34.334Z,7.57
2019-03-21T17:31:04.173Z,6.07
2019-03-21T17:33:33.801Z,6.50
2019-03-21T17:36:03.545Z,6.50
2019-03-21T17:38:33.351Z,6.20
2019-03-21T17:41:03.242Z,6.20
2019-03-21T17:43:33.161Z,6.17
2019-03-21T17:46:03.436Z,6.20
2019-03-21T17:48:33.541Z,7.47
2019-03-21T17:51:03.179Z,6.00
2019-03-21T17:53:32.828Z,6.97
2019-03-21T17:56:02.582Z,6.40
2019-03-21T17:58:32.391Z,5.30
2019-03-21T18:01:02.025Z,6.70
2019-03-21T18:03:31.791Z,8.23
2019-03-21T18:06:01.595Z,9.90
2019-03-21T18:08:31.480Z,7.90
2019-03-21T18:11:01.422Z,7.90
2019-03-21T18:13:31.315Z,10.57
2019-03-21T18:16:01.326Z,14.60
2019-03-21T18:18:31.229Z,15.90
2019-03-21T18:21:01.084Z,10.87
2019-03-21T18:23:30.937Z,7.03
2019-03-21T18:26:00.574Z,6.37
2019-03-21T18:28:30.703Z,7.13
2019-03-21T18:31:00.976Z,7.00
2019-03-21T18:33:30.801Z,7.20
2019-03-21T18:36:00.512Z,7.27
2019-03-21T18:38:30.260Z,7.27
2019-03-21T18:41:00.054Z,6.50
2019-03-21T18:43:30.112Z,7.90
2019-03-21T18:45:59.734Z,7.03
2019-03-21T18:48:29.676Z,6.63
2019-03-21T18:50:59.594Z,8.50
2019-03-21T18:53:29.486Z,8.77
2019-03-21T18:55:59.419Z,8.60
2019-03-21T18:58:29.245Z,7.83
2019-03-21T19:00:59.024Z,7.70
2019-03-21T19:03:28.820Z,7.77
2019-03-21T19:05:59.410Z,8.63
2019-03-21T19:08:29.357Z,8.13
2019-03-21T19:10:59.326Z,7.23
2019-03-21T19:13:29.342Z,8.80
2019-03-21T19:16:00.063Z,8.60
2019-03-21T19:18:29.802Z,21.90
2019-03-21T19:20:59.529Z,18.67
2019-03-21T19:23:29.672Z,11.70
2019-03-21T19:25:59.439Z,9.87
2019-03-21T19:28:29.385Z,10.80
2019-03-21T19:30:59.365Z,11.37
2019-03-21T19:33:29.001Z,12.90
2019-03-21T19:35:58.882Z,14.70
2019-03-21T19:38:28.677Z,16.67
2019-03-21T19:40:58.390Z,12.60
2019-03-21T19:43:28.326Z,12.53
2019-03-21T19:45:58.137Z,11.47
2019-03-21T19:48:27.784Z,16.40
2019-03-21T19:50:57.931Z,12.77
2019-03-21T19:53:29.056Z,12.80
2019-03-21T19:56:08.000Z,12.90
2019-03-21T19:58:30.632Z,15.60
2019-03-21T20:01:00.749Z,12.00
2019-03-21T20:03:30.664Z,11.70
2019-03-21T20:06:00.673Z,13.77
2019-03-21T20:08:30.355Z,12.50
2019-03-21T20:11:01.372Z,12.53
2019-03-21T20:13:33.575Z,14.33
2019-03-21T20:16:03.310Z,13.30
2019-03-21T20:18:33.797Z,12.27
2019-03-21T20:21:03.706Z,12.37
2019-03-21T20:23:33.981Z,11.33
2019-03-21T20:26:03.684Z,12.33
2019-03-21T20:28:33.470Z,13.50
2019-03-21T20:31:03.348Z,14.10
2019-03-21T20:33:33.237Z,12.37
2019-03-21T20:36:03.087Z,11.37
2019-03-21T20:38:32.760Z,10.90
2019-03-21T20:41:02.698Z,12.33
2019-03-21T20:43:32.749Z,11.83
2019-03-21T20:46:03.043Z,13.10
2019-03-21T20:48:31.596Z,12.53
2019-03-21T20:51:01.589Z,12.63
2019-03-21T20:53:31.428Z,14.60
2019-03-21T20:56:01.335Z,13.37
2019-03-21T20:58:31.335Z,14.10
2019-03-21T21:01:01.227Z,13.43
2019-03-21T21:03:31.274Z,15.20
2019-03-21T21:06:01.670Z,13.83
2019-03-21T21:08:31.658Z,12.93
2019-03-21T21:11:01.843Z,13.20
2019-03-21T21:13:32.031Z,15.37
2019-03-21T21:16:02.376Z,14.70
2019-03-21T21:18:32.070Z,14.87
2019-03-21T21:21:02.061Z,15.83
2019-03-21T21:23:32.090Z,16.70
2019-03-21T21:26:05.799Z,15.10
2019-03-21T21:28:33.481Z,13.10
2019-03-21T21:31:03.291Z,12.30
2019-03-21T21:33:32.892Z,19.13
2019-03-21T21:36:03.099Z,14.20
2019-03-21T21:38:32.911Z,13.27
2019-03-21T21:41:02.709Z,14.93
2019-03-21T21:43:32.647Z,15.40
2019-03-21T21:46:02.679Z,15.93
2019-03-21T21:48:32.357Z,14.17
2019-03-21T21:51:02.491Z,14.67
2019-03-21T21:53:32.327Z,14.00
2019-03-21T21:56:02.611Z,11.37
2019-03-21T21:58:32.612Z,11.73
2019-03-21T22:01:02.686Z,12.20
2019-03-21T22:03:32.463Z,13.00
2019-03-21T22:06:02.335Z,11.80
2019-03-21T22:08:33.736Z,12.73
2019-03-21T22:11:03.592Z,11.60
2019-03-21T22:13:33.644Z,11.40
2019-03-21T22:16:04.430Z,12.37
2019-03-21T22:18:34.261Z,11.87
2019-03-21T22:21:04.481Z,11.50
2019-03-21T22:23:34.690Z,11.80
2019-03-21T22:26:04.742Z,10.97
2019-03-21T22:28:34.410Z,11.33
2019-03-21T22:31:04.325Z,10.67
2019-03-21T22:33:34.063Z,12.80
2019-03-21T22:36:06.455Z,12.53
2019-03-21T22:38:35.490Z,11.70
2019-03-21T22:41:05.256Z,12.80
2019-03-21T22:43:35.353Z,14.00
2019-03-21T22:46:05.747Z,14.73
2019-03-21T22:48:35.377Z,14.03
2019-03-21T22:51:05.057Z,13.97
2019-03-21T22:53:34.700Z,14.77
2019-03-21T22:56:04.710Z,14.63
2019-03-21T22:58:36.506Z,14.27
2019-03-21T23:01:06.638Z,13.90
2019-03-21T23:03:36.787Z,14.80
2019-03-21T23:06:06.459Z,14.53
2019-03-21T23:08:36.263Z,14.20
2019-03-21T23:11:06.952Z,12.20
2019-03-21T23:13:36.625Z,14.33
2019-03-21T23:16:06.467Z,13.97
2019-03-21T23:18:36.149Z,12.37
2019-03-21T23:21:06.086Z,12.50
2019-03-21T23:23:36.906Z,13.47
2019-03-21T23:26:06.679Z,13.07
2019-03-21T23:28:36.753Z,11.60
2019-03-21T23:31:06.608Z,13.20
2019-03-21T23:33:36.485Z,13.10
2019-03-21T23:36:06.432Z,11.77
2019-03-21T23:38:36.652Z,12.33
2019-03-21T23:41:06.904Z,11.67
2019-03-21T23:43:36.531Z,11.40
2019-03-21T23:46:06.432Z,12.10
2019-03-21T23:48:36.101Z,14.10
2019-03-21T23:51:05.869Z,16.13
2019-03-21T23:53:35.479Z,14.80
2019-03-21T23:56:05.727Z,12.57
2019-03-21T23:58:35.304Z,12.97
